Terminal Aerodrome Forecast
Issued by NWS Portland, OR

Home | Current Version | Previous Version | Text Only | Print | Product List | Glossary On
Versions: 1 2 3 4 5 6 7 8 9 10 11 12 13 14 15 16 17 18 19 20 21 22 23 24 25 26 27 28 29 30 31 32 33 34 35 36
000
FTUS46 KPQR 011120
TAFPDX
TAF
KPDX 011120Z 0112/0212 VRB03KT 1/2SM FG VV002
     FM011700 00000KT 1SM BR OVC004
     FM011800 VRB03KT 3SM BR BKN008 OVC015
     FM012200 29003KT P6SM VCSH SCT015 BKN030
     FM020900 30003KT 6SM BR FEW004 SCT030 BKN040=

USA.gov is the U.S. government's official web portal to all federal, state and local government web resources and services.